CW1839 Weather Reports


Display with metric or nautical units.
time (UTC)temp
F
wind
direction
speed
MPH
gust
MPH
rain 1hr
in
rain 24hr
in
rain mn
in
humidity
%
barometer
mb
20220519104608 76 104 4.0 0.0 0.00 0.00 0.00 53 1016.9
20220519101613 75 78 3.0 0.0 0.00 0.00 0.00 51 1016.7
20220519094613 75 82 4.0 0.0 0.00 0.00 0.00 50 1016.7
20220519091614 75 13 4.0 0.0 0.00 0.00 0.00 50 1016.7
20220519084608 74 121 2.0 0.0 0.00 0.00 0.00 56 1016.6
20220519081621 73 104 3.0 0.0 0.00 0.00 0.00 55 1016.3
20220519074619 73 89 1.0 0.0 0.00 0.00 0.00 55 1015.9
20220519071607 73 106 1.0 0.0 0.00 0.00 0.00 54 1015.5
20220519064514 71 79 2.0 0.0 0.00 0.00 0.00 57 1015.5
20220519061619 69 71 0.0 0.0 0.00 0.00 0.00 59 1015.3
20220519054600 67 347 0.0 0.0 0.00 0.00 0.00 63 1015.2
20220519051613 66 0 0.0 0.0 0.00 0.00 0.00 68 1014.7
20220519044613 64 353 0.0 0.0 0.00 0.00 0.00 71 1014.3
20220519041609 63 0 0.0 0.0 0.00 0.00 0.00 72 1014.0
20220519034611 62 0 0.0 0.0 0.00 0.00 0.00 72 1013.6
20220519033030 63 0 0.0 0.0 0.00 0.00 0.00 71 1013.5
20220519030119 63 354 0.0 0.0 0.00 0.00 0.00 69 1013.4
20220519023118 63 0 0.0 0.0 0.00 0.00 0.00 68 1013.2
20220519020135 63 0 0.0 0.0 0.00 0.00 0.00 70 1013.2
20220519013117 63 344 0.0 0.0 0.00 0.00 0.00 68 1013.0
20220519010118 64 0 0.0 0.0 0.00 0.00 0.00 68 1012.9
20220519003019 64 0 0.0 0.0 0.00 0.00 0.00 66 1012.9
20220519000113 63 0 1.0 0.0 0.00 0.00 0.00 66 1012.8
20220518233117 65 38 1.0 0.0 0.00 0.00 0.00 63 1012.8
20220518230018 66 107 0.0 0.0 0.00 0.00 0.00 62 1012.9
20220518223024 66 107 0.0 0.0 0.00 0.00 0.00 63 1012.9
20220518220109 67 210 0.0 0.0 0.00 0.00 0.00 61 1012.9
20220518213002 67 210 0.0 0.0 0.00 0.00 0.00 59 1012.8
20220518210103 68 210 0.0 0.0 0.00 0.00 0.00 59 1012.8
20220518203018 68 130 0.0 0.0 0.00 0.00 0.00 59 1012.7
20220518200106 68 79 0.0 0.0 0.00 0.00 0.00 60 1012.6
20220518193106 68 79 0.0 0.0 0.00 0.00 0.00 59 1012.4
20220518190115 68 80 0.0 0.0 0.00 0.00 0.00 61 1012.3
20220518183108 69 52 1.0 0.0 0.00 0.00 0.00 59 1011.9
20220518180127 70 44 2.0 0.0 0.00 0.00 0.00 58 1011.3
20220518173001 74 73 0.0 0.0 0.00 0.00 0.00 51 1010.9
20220518170106 76 78 1.0 0.0 0.00 0.00 0.00 46 1010.8
20220518163107 77 31 2.0 0.0 0.00 0.00 0.00 39 1010.7
20220518160113 77 51 1.0 0.0 0.00 0.00 0.00 39 1010.7
20220518153153 77 42 2.0 0.0 0.00 0.00 0.00 38 1010.7
20220518150129 77 85 2.0 0.0 0.00 0.00 0.00 39 1010.5
20220518143013 78 65 3.0 0.0 0.00 0.00 0.00 37 1010.8
20220518140122 76 93 2.0 0.0 0.00 0.00 0.00 40 1010.9
20220518133007 76 75 1.0 0.0 0.00 0.00 0.00 38 1010.9
20220518130110 77 71 2.0 0.0 0.00 0.00 0.00 38 1011.0
20220518123120 80 93 3.0 0.0 0.00 0.00 0.00 35 1011.0
20220518120006 79 104 4.0 0.0 0.00 0.00 0.00 35 1011.0
20220518113008 80 85 4.0 0.0 0.00 0.00 0.00 33 1010.9